Date,TemperatureHighF,TemperatureAvgF,TemperatureLowF,DewpointHighF,DewpointAvgF,DewpointLowF,HumidityHigh,HumidityAvg,HumidityLow,PressureMaxIn,PressureMinIn,WindSpeedMaxMPH,WindSpeedAvgMPH,GustSpeedMaxMPH,PrecipitationSumIn
2013-1-1,29.7,25.1,20.3,13.0,9.9,7.0,57,52,47,30.17,30.05,10,2,10,0.00
2013-1-2,29.8,25.9,22.1,17.6,12.8,8.1,63,57,51,30.17,30.08,14,2,14,0.00
2013-1-3,30.6,27.7,23.5,20.7,15.4,8.2,70,60,51,30.17,30.02,13,3,13,0.00
2013-1-4,35.4,30.4,26.1,21.8,18.3,14.4,69,61,52,30.17,30.02,18,6,18,0.00
2013-1-5,43.5,33.1,25.7,30.8,22.4,15.7,86,65,47,30.20,29.96,10,1,10,0.12
2013-1-6,36.7,34.8,32.5,33.0,25.9,17.2,94,71,51,30.26,29.84,13,3,13,0.12
2013-1-7,42.4,33.8,29.8,21.6,19.0,15.2,65,55,40,30.29,30.08,13,3,13,0.00
2013-1-8,43.5,33.9,27.1,25.1,20.7,16.9,67,58,47,30.17,30.05,7,1,7,0.00
2013-1-9,45.7,39.0,32.2,28.3,24.1,19.4,66,55,44,30.40,29.96,24,5,24,0.00
2013-1-10,51.8,37.1,28.0,29.9,23.2,18.7,71,58,40,30.49,30.05,10,2,10,0.24
2013-1-11,52.2,46.0,37.9,52.2,43.1,29.2,100,90,70,30.05,29.73,14,2,14,0.59
2013-1-12,57.0,48.1,37.9,45.9,36.2,24.8,92,64,46,29.96,29.75,17,3,17,0.00
2013-1-13,38.7,32.1,24.4,32.5,24.8,12.4,92,75,60,30.11,29.84,10,1,10,0.20
2013-1-14,30.0,23.4,20.3,13.3,10.8,9.1,69,58,50,30.40,30.11,0,0,0,0.00
2013-1-15,37.9,27.7,21.2,18.3,13.8,10.6,65,56,43,30.40,30.11,4,0,4,0.00
2013-1-16,36.1,29.4,21.7,24.0,16.5,10.7,67,59,46,30.14,29.78,22,3,22,0.00
2013-1-17,35.2,33.0,30.4,22.3,17.5,13.9,59,52,50,30.14,29.96,12,2,12,0.00
2013-1-20,20.8,18.3,0.0,8.3,5.4,0.0,67,56,52,30.20,30.05,17,4,17,0.00
2013-1-21,20.7,12.0,4.5,7.4,0.8,-7.3,67,60,53,30.14,30.02,20,3,20,0.00
2013-1-22,19.4,10.7,3.7,4.3,-2.1,-7.8,63,56,49,30.29,30.14,13,0,13,0.00
2013-1-23,23.5,17.2,11.3,12.6,5.5,0.4,66,60,52,30.29,30.05,8,1,8,0.00
2013-1-24,30.2,17.9,7.0,9.8,4.2,-3.0,67,55,42,30.58,30.17,6,0,6,0.00
2013-1-25,30.7,24.6,19.8,15.8,10.8,4.9,65,55,49,30.43,29.93,8,1,8,0.00
2013-1-26,36.3,28.2,22.3,17.5,14.0,10.3,64,55,43,30.40,30.02,10,1,10,0.04
2013-1-27,38.3,30.9,24.4,26.2,17.4,12.6,73,57,45,30.40,29.99,9,2,9,0.00
2013-1-28,43.7,37.9,34.0,43.7,32.3,26.1,100,80,70,30.02,29.81,13,2,13,0.16
2013-1-29,54.3,45.7,35.2,54.1,44.6,27.6,100,96,73,29.96,29.40,11,1,11,1.50
2013-1-30,49.3,39.4,24.8,49.3,36.8,16.2,100,90,66,29.43,29.16,17,2,17,0.43
2013-1-31,24.6,19.7,16.5,16.6,10.1,6.5,76,66,55,29.93,29.40,0,0,0,0.00
2013-2-1,20.1,16.3,14.4,9.6,5.3,2.5,72,62,52,30.23,29.90,0,0,0,0.00
2013-2-2,26.4,19.5,12.0,12.6,6.5,-1.1,71,57,45,30.14,29.99,0,0,0,0.00
2013-2-3,23.5,18.9,13.1,11.0,6.0,-0.2,63,56,53,30.02,29.87,0,0,0,0.00
2013-2-4,37.8,24.5,17.8,17.7,10.3,3.9,63,55,43,29.99,29.87,0,0,0,0.00
2013-2-5,32.2,23.3,12.6,22.1,11.5,-0.6,77,60,52,30.02,29.75,0,0,0,0.00
2013-2-6,43.0,30.5,19.4,21.4,14.9,6.6,62,53,42,30.23,30.02,9,1,9,0.04
2013-2-7,37.0,33.7,30.7,27.6,21.7,15.4,75,62,52,30.20,29.87,8,1,8,0.24
2013-2-8,38.5,30.1,20.8,26.0,18.0,9.3,82,61,45,30.34,29.87,10,1,10,0.20
2013-2-9,46.9,26.6,12.6,25.4,11.5,0.9,62,53,41,30.40,30.17,8,0,8,0.04
2013-2-10,40.8,32.9,22.8,39.0,22.5,11.3,94,66,51,30.17,29.55,11,2,11,0.16
2013-2-11,43.0,35.3,30.2,41.9,25.9,16.0,99,69,55,29.90,29.52,23,6,23,0.08
2013-2-12,30.9,29.3,27.5,18.0,16.5,13.3,61,58,54,30.05,29.90,15,5,15,0.00
2013-2-13,45.0,34.1,25.3,25.4,20.0,14.0,66,56,44,29.93,29.73,10,2,10,0.00
2013-2-14,42.8,34.3,29.1,32.5,26.1,17.5,91,73,52,29.90,29.64,19,3,19,0.08
2013-2-15,32.2,26.5,23.4,17.7,12.6,8.5,63,55,44,30.14,29.90,12,3,12,0.00
2013-2-16,31.3,21.4,0.0,13.9,8.6,4.7,64,57,42,30.11,30.02,13,2,13,0.12
2013-2-17,38.5,20.9,8.4,16.2,5.5,-2.6,63,52,40,30.20,30.11,5,1,8,0.00
2013-2-18,50.7,36.6,21.6,38.3,21.1,6.6,85,54,40,30.11,29.43,12,3,12,0.12
2013-2-19,42.1,25.0,16.7,39.0,17.6,6.4,92,73,62,29.99,29.40,17,1,17,0.08
2013-2-20,26.8,20.4,16.0,10.7,7.7,4.5,69,58,50,30.29,29.99,0,0,0,0.00
2013-2-21,39.4,27.4,21.7,18.4,11.8,8.0,61,52,42,30.34,30.14,0,0,0,0.04
2013-2-22,36.3,30.5,23.0,27.6,18.7,8.8,76,62,50,30.14,29.81,11,0,11,0.00
2013-2-23,34.0,31.1,27.1,23.5,18.9,14.8,70,60,49,29.90,29.81,15,4,15,0.00
2013-2-24,42.8,33.6,26.6,22.6,18.8,14.7,71,55,42,30.14,29.90,14,3,14,0.04
2013-2-25,56.7,35.0,21.4,31.8,18.2,8.5,62,51,37,30.20,30.05,6,1,6,0.00
2013-2-26,39.7,33.4,29.5,31.0,21.1,14.7,90,62,45,30.11,29.55,20,4,20,0.43
2013-2-27,43.0,37.2,34.0,31.0,29.0,27.3,87,73,57,29.64,29.49,6,0,6,0.24
2013-2-28,41.5,35.0,31.8,30.7,24.1,17.6,87,65,49,30.02,29.64,13,3,13,0.00
2013-3-1,48.4,33.0,25.0,25.2,15.5,9.4,57,49,38,30.17,29.99,10,2,10,0.00
2013-3-2,47.7,27.0,17.6,23.1,10.5,5.6,63,50,38,30.14,30.05,11,2,11,0.00
2013-3-3,38.7,25.8,15.4,17.1,9.2,2.4,58,49,40,30.11,30.02,13,2,13,0.00
2013-3-4,55.2,29.8,15.3,29.4,11.5,1.6,56,47,37,30.14,30.05,6,1,6,0.00
2013-3-5,40.5,31.2,23.2,19.1,13.8,6.9,60,48,42,30.11,29.84,13,4,13,0.00
2013-3-6,45.9,35.6,28.8,25.4,21.0,16.6,67,56,44,30.23,29.96,11,3,13,0.00
2013-3-7,45.3,35.1,26.1,24.4,19.4,12.3,70,53,40,30.40,30.20,14,2,14,0.00
2013-3-8,58.3,35.3,21.4,32.6,17.8,9.0,61,50,36,30.49,30.34,6,1,6,0.00
2013-3-9,49.8,39.1,28.6,27.7,21.3,13.6,57,49,40,30.38,29.93,9,2,9,0.00
2013-3-10,51.4,45.2,39.9,39.8,33.7,25.4,84,64,50,29.93,29.69,6,0,6,0.31
2013-3-11,56.7,44.1,34.7,42.1,36.5,30.4,91,75,55,29.69,29.52,14,2,14,0.16
2013-3-12,35.2,32.8,29.5,31.3,21.5,16.1,92,64,49,29.90,29.67,14,1,14,0.04
2013-3-13,37.0,28.8,24.3,21.9,13.4,7.7,72,53,41,30.23,29.90,15,2,15,0.04
2013-3-14,51.8,33.9,23.4,26.6,15.6,9.2,59,47,38,30.26,30.08,17,2,17,0.00
2013-3-15,45.5,38.0,34.2,29.5,26.6,19.4,76,64,48,30.08,29.84,13,3,13,0.04
2013-3-16,44.1,33.5,27.1,25.7,18.8,11.4,69,55,42,30.08,29.75,11,2,12,0.08
2013-3-17,54.7,34.4,25.3,28.7,14.7,8.2,51,44,37,30.23,30.08,12,4,13,0.00
2013-3-18,38.5,30.5,22.8,29.7,18.1,8.5,89,60,48,30.11,29.58,15,4,15,0.08
2013-3-19,34.5,25.0,20.7,19.2,11.7,8.4,74,57,44,29.96,29.64,28,5,28,0.00
2013-3-20,27.1,23.1,19.2,11.7,8.3,6.6,65,53,45,29.99,29.90,17,5,17,0.00
2013-3-21,34.3,26.2,18.0,18.1,12.1,4.9,68,55,49,29.99,29.90,15,3,15,0.04
2013-3-22,47.7,32.7,26.6,24.9,15.0,10.9,55,48,39,30.05,29.99,15,2,15,0.00
2013-3-23,48.0,34.9,26.6,25.4,17.7,13.2,60,50,41,30.14,30.05,8,1,8,0.00
2013-3-24,51.6,35.5,26.8,28.1,18.5,14.2,62,50,40,30.05,29.73,17,3,17,0.00
2013-3-25,44.1,35.9,31.3,22.4,18.5,15.1,56,49,42,29.99,29.67,14,4,14,0.00
2013-3-26,44.8,36.2,30.0,25.9,22.6,18.2,68,58,47,30.17,29.99,15,4,15,0.00
2013-3-27,48.6,37.5,30.6,27.5,22.2,15.9,85,56,38,30.23,30.17,25,3,25,0.00
2013-3-28,58.8,40.4,30.7,32.9,22.1,15.6,68,49,36,30.32,30.23,14,2,14,0.00
2013-3-29,59.2,40.2,27.1,33.4,22.2,15.2,66,50,36,30.29,30.23,13,2,13,0.00
2013-3-30,72.9,44.5,25.7,43.3,25.8,14.1,71,50,35,30.23,29.87,13,1,13,0.00
2013-3-31,50.9,43.8,36.7,40.4,30.6,21.8,91,61,45,29.87,29.69,17,4,17,0.04
2013-4-1,36.7,31.1,27.3,25.3,12.4,9.0,67,45,41,30.11,29.78,17,4,17,0.00
2013-4-2,46.6,32.8,23.4,22.6,13.5,8.6,58,45,39,30.26,30.11,23,3,23,0.00
2013-4-3,64.4,36.0,24.8,37.5,16.4,9.7,57,45,36,30.43,30.26,13,2,13,0.00
2013-4-4,69.8,43.1,27.7,41.5,21.3,11.6,51,42,36,30.32,29.96,15,3,15,0.00
2013-4-5,59.9,42.3,32.7,33.6,20.8,15.4,50,42,36,30.20,29.96,15,2,15,0.00
2013-4-6,63.1,49.8,38.3,36.5,26.1,16.1,48,40,36,30.17,29.67,12,3,12,0.00
2013-4-7,65.1,47.6,38.5,43.1,30.4,21.9,73,52,37,30.02,29.58,17,4,17,0.04
2013-4-8,54.5,41.6,36.7,49.0,33.3,21.8,99,73,52,30.02,29.67,17,3,18,0.51
2013-4-9,49.8,44.2,0.0,47.1,40.6,37.0,94,86,72,30.05,29.84,16,2,16,0.94
2013-4-10,45.1,41.9,38.7,39.8,34.6,26.0,91,75,61,30.02,29.84,18,3,18,0.39
2013-4-11,38.8,37.5,36.3,34.0,31.3,24.7,86,79,57,29.99,29.64,22,5,22,1.06
2013-4-12,43.5,38.5,35.6,37.3,31.7,27.3,94,78,55,29.78,29.58,16,3,17,0.16
2013-4-13,43.0,37.1,35.1,35.0,24.9,19.4,96,63,45,29.99,29.78,25,4,25,0.04
2013-4-14,75.6,45.6,31.6,45.3,29.9,21.8,72,56,34,30.08,29.81,12,2,12,0.08
2013-4-15,69.6,55.2,0.0,54.2,41.5,30.3,92,61,42,29.96,29.78,13,1,13,0.55
2013-4-16,59.4,46.8,40.5,45.5,32.1,25.4,94,60,38,30.26,29.93,14,2,14,0.20
2013-4-17,58.1,47.1,41.5,43.5,32.6,24.8,93,60,38,30.32,29.93,17,3,17,1.18
2013-4-18,61.7,54.5,45.7,61.0,52.0,42.9,100,92,66,29.99,29.43,23,2,23,2.44
2013-4-19,57.2,39.1,34.5,49.9,26.6,18.1,88,61,49,29.78,29.46,23,8,23,0.08
2013-4-20,61.9,36.0,28.4,35.5,17.2,13.1,63,47,36,30.43,29.78,17,4,17,0.00
2013-4-21,75.4,45.2,26.6,45.5,25.4,14.9,63,47,34,30.55,30.38,10,2,10,0.00
2013-4-22,93.4,56.9,36.5,57.9,34.0,22.6,60,44,31,30.38,30.11,9,2,9,0.00
2013-4-23,67.8,51.3,40.3,48.2,36.1,27.1,89,59,39,30.11,29.87,13,2,13,0.39
2013-4-24,63.7,41.6,34.5,36.6,26.9,20.6,88,58,36,30.08,29.90,17,4,17,0.12
2013-4-25,64.6,44.4,36.1,37.5,28.0,20.6,90,54,37,30.32,30.02,22,3,22,0.16
2013-4-26,89.6,55.6,36.1,55.4,33.8,23.2,60,45,32,30.38,30.23,11,2,11,0.00
2013-4-27,92.3,63.5,45.0,57.3,39.8,31.2,59,43,31,30.29,30.05,10,1,10,0.00
2013-4-28,90.1,64.4,54.7,55.7,40.3,32.0,57,42,31,30.05,29.81,10,2,10,0.00
2013-4-29,77.0,62.2,48.4,48.6,43.7,38.6,84,53,34,29.93,29.84,12,2,12,0.00
2013-4-30,101.5,71.6,56.8,63.0,50.4,41.8,80,50,29,29.96,29.84,13,3,13,0.51
2013-5-1,108.7,77.5,60.4,70.5,52.1,46.3,63,43,28,30.17,29.96,11,2,11,0.00
2013-5-2,93.6,72.2,60.6,57.5,47.5,39.6,58,43,30,30.17,30.08,11,2,11,0.00
2013-5-3,92.1,68.0,54.5,57.1,46.6,38.4,70,48,31,30.11,29.96,10,2,10,0.00
2013-5-4,105.1,73.3,55.9,65.2,44.5,33.4,45,36,28,30.08,29.99,11,3,11,0.00
2013-5-5,96.6,70.6,54.7,59.9,42.0,30.3,42,36,30,30.08,29.99,13,2,13,0.00
2013-5-6,95.4,69.0,51.4,59.0,41.5,30.0,46,37,30,30.05,29.96,9,1,9,0.00
2013-5-7,105.3,72.4,52.9,65.4,45.6,34.7,57,40,28,30.05,29.96,13,1,13,0.00
2013-5-8,98.8,72.4,55.9,61.5,46.1,36.6,61,40,29,30.05,29.96,13,1,13,0.00
2013-5-9,88.7,67.8,51.8,55.1,43.8,36.8,59,43,32,29.99,29.87,10,0,10,0.00
2013-5-10,61.3,53.6,49.3,49.3,41.7,36.4,75,64,54,29.93,29.78,11,1,11,0.35
2013-5-11,65.1,48.6,38.5,42.4,35.7,25.0,79,62,37,29.96,29.75,17,2,17,0.00
2013-5-12,66.6,43.7,37.9,38.6,24.7,21.1,71,48,36,30.11,29.93,22,4,22,0.00
2013-5-13,79.0,48.7,32.9,47.9,28.1,20.9,65,46,34,30.20,30.05,13,2,13,0.00
2013-5-14,83.7,63.3,49.5,52.2,37.8,26.1,53,39,33,30.05,29.64,15,2,15,0.00
2013-5-15,85.1,70.7,59.9,51.5,44.6,37.3,54,40,32,29.84,29.58,14,3,14,0.00
2013-5-16,99.5,69.3,48.7,61.6,44.6,36.4,68,43,29,29.99,29.84,13,2,13,0.00
2013-5-17,79.7,65.3,56.1,48.8,38.1,31.5,41,37,34,30.11,29.99,11,3,11,0.00
2013-5-18,93.6,72.3,56.5,57.6,45.4,36.0,49,39,30,30.14,29.96,8,2,8,0.00
2013-5-19,111.2,80.0,60.4,71.6,51.2,38.5,50,38,28,29.99,29.81,10,1,10,0.00
2013-5-20,105.3,81.7,69.3,66.3,55.8,50.0,61,43,28,29.87,29.75,15,2,15,0.00
2013-5-21,100.2,76.7,64.8,64.6,55.9,49.3,83,51,29,29.81,29.69,17,2,17,0.39
2013-5-22,74.5,66.9,57.9,63.8,56.8,50.2,86,71,44,29.73,29.64,12,1,12,0.39
2013-5-23,78.3,54.2,44.2,53.8,43.9,30.2,92,70,34,30.23,29.69,12,1,12,0.43
2013-5-24,84.2,52.4,37.0,51.8,33.3,27.3,73,50,32,30.38,30.23,13,1,13,0.00
2013-5-25,89.6,58.8,39.6,55.5,37.9,30.9,76,48,32,30.40,30.29,8,0,8,0.00
2013-5-26,94.1,63.6,44.8,57.8,39.9,30.9,61,43,30,30.34,30.20,6,0,6,0.00
2013-5-27,63.7,56.9,52.2,44.9,37.8,29.2,71,50,37,30.23,29.93,10,1,10,0.00
2013-5-28,65.8,56.1,54.1,64.5,50.5,44.9,96,82,71,29.96,29.81,6,0,6,0.87
2013-9-25,93.0,66.0,0.0,57.9,43.9,0.0,56,45,31,29.84,29.81,3,0,3,0.00
2013-9-26,94.5,61.4,46.2,58.1,42.7,30.3,79,53,30,29.99,29.84,9,0,9,0.00
2013-9-27,82.5,53.9,37.5,48.0,34.8,28.6,75,51,30,30.08,29.96,6,0,6,0.00
2013-9-28,80.0,55.5,40.2,46.7,36.2,30.6,81,51,31,29.99,29.75,8,0,10,0.00
2013-9-29,72.3,52.7,42.9,44.6,36.2,29.8,88,56,32,29.87,29.75,12,0,12,0.28
2013-9-30,70.1,49.2,36.6,40.2,33.2,29.1,80,56,33,29.84,29.75,8,0,8,0.00
2013-10-1,69.8,51.4,42.6,49.0,40.4,32.0,100,68,38,29.81,29.73,11,1,11,0.00
2013-10-2,80.2,54.6,41.5,47.5,37.9,28.7,90,58,31,29.93,29.75,6,0,6,0.00
2013-10-3,66.9,53.3,43.5,48.0,38.3,26.7,76,57,44,29.87,29.73,9,1,9,0.00
2013-10-4,70.3,57.4,51.8,52.1,46.6,42.5,94,70,40,29.81,29.73,10,0,10,0.04
2013-10-5,68.9,57.3,52.5,53.3,49.5,45.8,95,76,49,29.81,29.61,8,0,8,0.35
2013-10-6,56.1,48.6,40.4,50.9,39.8,26.3,90,72,39,29.64,29.52,9,0,9,0.35
2013-10-7,47.3,38.7,35.4,37.8,32.0,26.7,92,77,50,29.67,29.52,12,1,12,0.20
2013-10-13,54.1,41.5,34.5,29.7,25.5,24.1,67,54,39,30.17,30.11,8,1,8,0.08
2013-10-14,64.4,39.6,0.0,35.4,24.5,19.4,83,57,34,30.23,30.02,8,0,8,0.00
2013-10-15,55.2,42.7,32.1,48.1,32.6,21.8,97,69,46,30.02,29.58,8,0,8,0.28
2013-10-16,47.4,40.7,38.4,38.0,30.6,25.4,91,68,57,29.69,29.61,11,1,11,0.12
2013-10-17,41.7,37.7,30.2,37.0,33.3,26.9,90,84,69,29.69,29.55,10,0,10,0.75
2013-10-18,47.6,35.0,27.6,32.9,26.0,20.2,95,72,46,29.69,29.64,13,1,13,0.00
2013-10-19,43.5,34.6,30.5,28.5,22.5,16.6,79,62,39,29.69,29.55,12,0,12,0.20
2013-10-20,57.2,40.4,28.0,47.9,29.9,15.5,100,67,22,29.67,29.52,8,0,8,0.08
2013-10-21,48.6,43.0,35.5,48.6,35.9,24.1,100,77,63,29.69,29.55,17,2,17,0.04
2013-10-22,47.2,37.4,32.6,35.0,27.7,22.4,90,68,58,29.73,29.67,17,1,17,0.12
2013-10-23,40.7,33.6,28.3,33.6,29.8,25.7,100,86,65,29.75,29.67,8,0,8,0.08
2013-10-24,31.0,30.8,30.8,29.2,28.9,28.5,93,92,91,29.75,29.75,0,0,0,0.00
2013-10-27,52.4,43.9,0.0,37.1,32.2,0.0,79,63,56,29.81,29.75,12,2,14,0.00
2013-10-28,51.5,38.9,31.9,38.9,31.2,26.9,93,75,59,30.17,29.81,10,1,10,0.00
2013-10-29,54.0,41.6,36.2,40.5,30.7,25.5,75,65,59,30.20,29.99,8,2,8,0.00
2013-10-30,62.6,47.0,32.8,52.6,39.6,28.7,100,77,57,29.99,29.64,6,0,6,0.43
2013-10-31,57.2,54.8,49.9,57.2,54.8,49.9,100,100,100,29.64,28.93,13,2,13,0.91
2013-11-1,49.9,42.4,40.1,49.9,40.1,34.4,100,92,76,29.46,29.02,19,3,19,0.31
2013-11-2,49.7,42.1,37.6,41.8,37.1,33.1,100,84,62,29.87,29.43,8,0,8,0.08
2013-11-3,56.9,40.7,33.8,41.4,31.7,27.7,86,71,56,30.11,29.87,6,0,6,0.00
2013-11-4,51.1,39.2,33.5,37.1,30.5,27.3,82,71,57,30.14,29.96,7,0,7,0.00
2013-11-5,58.5,49.0,44.3,45.1,40.0,34.9,80,71,61,30.05,29.78,8,0,8,0.00
2013-11-6,51.3,44.8,35.6,51.3,43.6,33.6,100,96,68,29.78,29.49,19,2,19,1.14
2013-11-7,39.6,33.9,30.6,34.1,26.0,22.3,94,73,65,29.81,29.55,14,2,14,0.08
2013-11-8,44.3,35.6,30.8,30.6,28.2,24.1,98,76,58,29.58,29.22,9,0,9,0.00
2013-11-9,46.8,42.6,36.2,37.6,32.6,27.0,73,68,64,29.22,28.96,20,4,20,0.00
2013-11-10,44.5,37.5,32.0,31.3,27.1,24.4,77,66,58,29.37,29.08,19,4,19,0.00
2013-11-11,41.2,32.5,21.4,36.3,26.5,16.1,100,79,66,29.34,20.22,14,2,14,0.24
2013-11-12,31.5,23.8,18.4,20.8,16.5,13.2,89,74,59,18.50,18.50,14,1,14,0.00
2013-11-13,39.1,27.0,18.5,26.3,18.5,13.4,84,71,60,18.50,18.50,18,2,18,0.00
2013-11-14,45.4,37.1,27.2,31.4,26.0,19.0,71,64,58,18.50,18.50,16,4,16,0.00
2013-11-15,48.8,38.6,33.5,35.3,28.0,24.0,76,65,57,18.50,18.50,12,1,12,0.00
2013-11-16,51.8,43.0,31.5,50.8,37.5,25.2,100,81,71,18.50,18.50,10,1,10,0.28
2013-11-17,59.8,50.4,36.7,56.7,49.6,31.7,100,97,73,18.50,18.50,30,3,30,1.38
2013-11-18,40.3,33.1,29.9,33.2,24.1,20.2,76,69,67,18.50,18.50,20,5,20,0.00
2013-11-19,46.6,32.0,25.2,32.6,22.7,18.0,83,69,58,18.50,18.50,8,0,8,0.00
2013-11-20,50.2,33.3,24.3,35.4,24.3,18.9,82,70,57,18.50,18.50,8,0,8,0.00
2013-11-21,47.2,41.2,35.1,42.3,35.7,29.6,100,82,65,18.50,18.50,8,0,8,0.08
2013-11-22,41.9,32.6,21.8,41.9,28.2,17.5,100,84,66,18.50,18.50,13,2,13,0.00
2013-11-23,26.3,19.8,13.1,19.6,11.6,5.2,92,70,61,18.50,18.50,17,4,17,0.00
2013-11-24,22.7,16.8,12.6,14.7,8.9,4.8,82,71,63,18.50,18.50,10,2,10,0.04
2013-11-25,29.5,23.0,15.3,25.3,16.5,6.3,96,76,64,18.50,18.50,17,4,17,0.00
2013-11-26,30.4,27.2,20.3,25.2,20.5,11.8,82,76,65,18.50,18.50,12,2,12,0.00
2013-11-27,29.0,20.7,16.7,17.6,11.7,9.3,80,68,60,18.50,18.50,14,2,14,0.00
2013-11-28,27.0,22.9,19.1,18.5,15.8,11.2,80,74,65,18.50,18.50,10,0,10,0.00
2013-11-29,37.4,26.1,18.0,26.0,18.1,11.7,80,72,63,18.50,18.50,4,0,4,0.04
2013-11-30,43.6,32.1,22.0,31.0,22.5,14.9,77,68,61,18.50,18.50,13,1,13,0.00
2013-12-1,42.5,34.7,30.6,30.0,26.2,22.5,87,71,59,18.50,18.50,6,1,8,0.00
2013-12-2,42.3,32.9,27.9,29.8,24.0,18.9,81,70,59,18.50,18.50,5,0,5,0.00
2013-12-3,32.6,30.4,28.1,32.6,26.9,19.2,100,87,67,18.50,18.50,8,1,8,0.67
2013-12-4,51.3,40.9,32.2,51.1,40.4,32.2,100,98,75,18.50,18.50,16,1,16,0.00
2013-12-5,49.7,30.8,22.5,45.7,22.8,13.5,88,72,67,18.50,18.50,15,6,22,0.00
2013-12-6,22.5,19.2,16.9,13.4,11.3,9.2,76,71,68,18.50,18.50,10,1,10,0.00
2013-12-7,21.6,16.5,13.1,12.8,9.2,5.8,80,73,68,18.50,18.50,6,0,6,0.04
2013-12-8,23.6,18.2,13.7,14.7,10.4,6.0,79,71,62,18.50,18.50,6,1,11,0.00
2013-12-9,24.1,19.8,11.9,21.1,12.6,3.3,88,73,64,18.50,18.50,20,5,20,0.00
2013-12-10,17.6,13.9,9.9,11.8,6.4,2.7,83,72,67,18.50,18.50,16,4,16,0.00
2013-12-11,17.6,13.5,8.6,12.2,7.2,1.9,84,75,70,18.50,18.50,12,3,12,0.00
2013-12-12,20.3,14.1,8.3,14.6,7.8,2.0,82,76,70,0.00,0.00,16,3,16,0.00
2013-12-13,33.1,24.4,19.6,21.1,16.1,11.2,79,71,61,0.00,0.00,11,2,11,0.00
2013-12-14,24.5,19.2,15.8,15.4,11.8,8.1,79,73,68,0.00,0.00,13,3,13,0.00
2013-12-15,21.2,16.2,11.9,15.7,9.0,3.7,80,73,67,0.00,0.00,15,3,15,0.00
2013-12-16,27.2,16.8,8.8,15.7,8.5,2.2,80,70,60,0.00,0.00,6,0,6,0.00
2013-12-17,27.4,23.1,16.6,23.3,17.9,9.1,91,81,69,0.00,0.00,16,3,16,0.00
2013-12-18,30.8,24.6,20.5,20.8,15.2,11.3,78,67,62,0.00,0.00,15,3,15,0.00
2013-12-19,38.7,32.0,26.8,29.0,25.5,19.0,90,77,66,0.00,0.00,10,2,10,0.04
2013-12-20,30.6,29.4,28.3,27.4,26.0,23.8,92,87,82,0.00,0.00,9,1,9,0.31
2013-12-21,31.9,29.7,26.6,28.9,26.4,22.6,94,87,80,0.00,0.00,0,0,0,0.16
2013-12-22,27.4,26.8,26.1,24.5,23.5,22.7,89,87,86,0.00,0.00,0,0,0,0.08